sensor_id;sensor_type;location;lat;lon;timestamp;P1;durP1;ratioP1;P2;durP2;ratioP2
13335;SDS011;6737;51.480;11.962;2023-02-18T00:00:15;3.53;;;1.37;;
13335;SDS011;6737;51.480;11.962;2023-02-18T00:02:43;2.90;;;1.20;;
13335;SDS011;6737;51.480;11.962;2023-02-18T00:05:09;4.57;;;1.30;;
13335;SDS011;6737;51.480;11.962;2023-02-18T00:07:35;5.50;;;1.53;;
13335;SDS011;6737;51.480;11.962;2023-02-18T00:10:03;4.70;;;1.40;;
13335;SDS011;6737;51.480;11.962;2023-02-18T00:12:30;3.63;;;1.40;;
13335;SDS011;6737;51.480;11.962;2023-02-18T00:14:56;3.63;;;1.40;;
13335;SDS011;6737;51.480;11.962;2023-02-18T00:17:22;5.23;;;1.43;;
13335;SDS011;6737;51.480;11.962;2023-02-18T00:19:48;4.17;;;1.33;;
13335;SDS011;6737;51.480;11.962;2023-02-18T00:22:14;5.50;;;1.47;;
13335;SDS011;6737;51.480;11.962;2023-02-18T00:24:40;3.07;;;1.17;;
13335;SDS011;6737;51.480;11.962;2023-02-18T00:27:05;2.97;;;1.37;;
13335;SDS011;6737;51.480;11.962;2023-02-18T00:29:31;4.10;;;1.13;;
13335;SDS011;6737;51.480;11.962;2023-02-18T00:31:58;5.33;;;1.40;;
13335;SDS011;6737;51.480;11.962;2023-02-18T00:34:24;6.23;;;1.87;;
13335;SDS011;6737;51.480;11.962;2023-02-18T00:36:50;3.20;;;1.17;;
13335;SDS011;6737;51.480;11.962;2023-02-18T00:39:16;3.93;;;1.00;;
13335;SDS011;6737;51.480;11.962;2023-02-18T00:41:42;3.37;;;1.27;;
13335;SDS011;6737;51.480;11.962;2023-02-18T00:44:08;3.47;;;1.03;;
13335;SDS011;6737;51.480;11.962;2023-02-18T00:46:34;3.37;;;1.20;;
13335;SDS011;6737;51.480;11.962;2023-02-18T00:49:00;3.10;;;1.30;;
13335;SDS011;6737;51.480;11.962;2023-02-18T00:51:27;4.93;;;1.50;;
13335;SDS011;6737;51.480;11.962;2023-02-18T00:53:52;3.43;;;1.13;;
13335;SDS011;6737;51.480;11.962;2023-02-18T00:56:19;5.80;;;1.53;;
13335;SDS011;6737;51.480;11.962;2023-02-18T00:58:45;5.77;;;1.50;;
13335;SDS011;6737;51.480;11.962;2023-02-18T01:01:11;5.63;;;1.40;;
13335;SDS011;6737;51.480;11.962;2023-02-18T01:03:38;3.77;;;1.30;;
13335;SDS011;6737;51.480;11.962;2023-02-18T01:06:06;5.40;;;1.50;;
13335;SDS011;6737;51.480;11.962;2023-02-18T01:08:33;4.47;;;1.40;;
13335;SDS011;6737;51.480;11.962;2023-02-18T01:11:00;7.93;;;1.50;;
13335;SDS011;6737;51.480;11.962;2023-02-18T01:13:27;4.77;;;1.50;;
13335;SDS011;6737;51.480;11.962;2023-02-18T01:15:53;5.00;;;1.50;;
13335;SDS011;6737;51.480;11.962;2023-02-18T01:18:19;3.57;;;1.50;;
13335;SDS011;6737;51.480;11.962;2023-02-18T01:20:45;4.57;;;1.60;;
13335;SDS011;6737;51.480;11.962;2023-02-18T01:23:12;3.57;;;1.27;;
13335;SDS011;6737;51.480;11.962;2023-02-18T01:25:39;5.67;;;1.80;;
13335;SDS011;6737;51.480;11.962;2023-02-18T01:28:06;6.27;;;1.67;;
13335;SDS011;6737;51.480;11.962;2023-02-18T01:30:33;5.10;;;1.50;;
13335;SDS011;6737;51.480;11.962;2023-02-18T01:32:59;4.13;;;1.30;;
13335;SDS011;6737;51.480;11.962;2023-02-18T01:35:25;6.83;;;1.67;;
13335;SDS011;6737;51.480;11.962;2023-02-18T01:37:51;5.37;;;1.57;;
13335;SDS011;6737;51.480;11.962;2023-02-18T01:40:19;4.73;;;1.50;;
13335;SDS011;6737;51.480;11.962;2023-02-18T01:42:46;7.53;;;1.53;;
13335;SDS011;6737;51.480;11.962;2023-02-18T01:48:05;8.33;;;1.50;;
13335;SDS011;6737;51.480;11.962;2023-02-18T01:50:46;5.40;;;1.53;;
13335;SDS011;6737;51.480;11.962;2023-02-18T01:53:25;5.33;;;1.53;;
13335;SDS011;6737;51.480;11.962;2023-02-18T01:56:00;6.27;;;1.30;;
13335;SDS011;6737;51.480;11.962;2023-02-18T01:58:29;7.10;;;1.60;;
13335;SDS011;6737;51.480;11.962;2023-02-18T02:00:56;6.93;;;1.40;;
13335;SDS011;6737;51.480;11.962;2023-02-18T02:03:21;6.87;;;1.60;;
13335;SDS011;6737;51.480;11.962;2023-02-18T02:05:47;5.43;;;1.33;;
13335;SDS011;6737;51.480;11.962;2023-02-18T02:08:13;6.33;;;1.83;;
13335;SDS011;6737;51.480;11.962;2023-02-18T02:13:29;4.30;;;1.33;;
13335;SDS011;6737;51.480;11.962;2023-02-18T02:16:21;7.10;;;1.80;;
13335;SDS011;6737;51.480;11.962;2023-02-18T02:18:56;5.70;;;1.70;;
13335;SDS011;6737;51.480;11.962;2023-02-18T02:36:02;4.63;;;1.73;;
13335;SDS011;6737;51.480;11.962;2023-02-18T02:41:26;5.53;;;1.53;;
13335;SDS011;6737;51.480;11.962;2023-02-18T02:43:57;5.73;;;1.77;;
13335;SDS011;6737;51.480;11.962;2023-02-18T02:46:45;7.97;;;1.80;;
13335;SDS011;6737;51.480;11.962;2023-02-18T02:54:17;5.13;;;1.80;;
13335;SDS011;6737;51.480;11.962;2023-02-18T02:56:45;5.87;;;1.77;;
13335;SDS011;6737;51.480;11.962;2023-02-18T02:59:23;10.33;;;2.10;;
13335;SDS011;6737;51.480;11.962;2023-02-18T03:04:56;7.37;;;1.97;;
13335;SDS011;6737;51.480;11.962;2023-02-18T03:07:50;5.70;;;1.90;;
13335;SDS011;6737;51.480;11.962;2023-02-18T03:16:11;6.83;;;1.97;;
13335;SDS011;6737;51.480;11.962;2023-02-18T03:18:40;9.20;;;2.37;;
13335;SDS011;6737;51.480;11.962;2023-02-18T03:21:34;6.63;;;1.97;;
13335;SDS011;6737;51.480;11.962;2023-02-18T03:24:06;7.33;;;2.10;;
13335;SDS011;6737;51.480;11.962;2023-02-18T03:26:38;10.10;;;2.20;;
13335;SDS011;6737;51.480;11.962;2023-02-18T03:29:10;5.77;;;1.90;;
13335;SDS011;6737;51.480;11.962;2023-02-18T03:31:38;8.53;;;2.07;;
13335;SDS011;6737;51.480;11.962;2023-02-18T03:34:11;7.53;;;2.10;;
13335;SDS011;6737;51.480;11.962;2023-02-18T03:36:41;5.20;;;1.83;;
13335;SDS011;6737;51.480;11.962;2023-02-18T03:39:09;6.90;;;1.63;;
13335;SDS011;6737;51.480;11.962;2023-02-18T03:41:39;9.03;;;2.00;;
13335;SDS011;6737;51.480;11.962;2023-02-18T03:44:06;10.47;;;1.97;;
13335;SDS011;6737;51.480;11.962;2023-02-18T03:46:33;9.43;;;1.60;;
13335;SDS011;6737;51.480;11.962;2023-02-18T03:49:01;5.83;;;1.90;;
13335;SDS011;6737;51.480;11.962;2023-02-18T03:51:27;7.43;;;1.67;;
13335;SDS011;6737;51.480;11.962;2023-02-18T03:53:53;4.57;;;1.70;;
13335;SDS011;6737;51.480;11.962;2023-02-18T03:56:19;6.53;;;1.70;;
13335;SDS011;6737;51.480;11.962;2023-02-18T03:58:45;7.77;;;2.07;;
13335;SDS011;6737;51.480;11.962;2023-02-18T04:01:11;6.87;;;1.90;;
13335;SDS011;6737;51.480;11.962;2023-02-18T04:03:38;6.87;;;1.70;;
13335;SDS011;6737;51.480;11.962;2023-02-18T04:06:03;5.00;;;1.50;;
13335;SDS011;6737;51.480;11.962;2023-02-18T04:08:29;6.57;;;1.40;;
13335;SDS011;6737;51.480;11.962;2023-02-18T04:10:55;4.63;;;1.40;;
13335;SDS011;6737;51.480;11.962;2023-02-18T04:13:21;5.87;;;1.80;;
13335;SDS011;6737;51.480;11.962;2023-02-18T04:15:49;6.53;;;1.60;;
13335;SDS011;6737;51.480;11.962;2023-02-18T04:18:15;4.80;;;1.50;;
13335;SDS011;6737;51.480;11.962;2023-02-18T04:20:42;9.47;;;2.10;;
13335;SDS011;6737;51.480;11.962;2023-02-18T04:23:08;5.37;;;1.83;;
13335;SDS011;6737;51.480;11.962;2023-02-18T04:25:34;5.03;;;1.70;;
13335;SDS011;6737;51.480;11.962;2023-02-18T04:27:59;6.83;;;1.80;;
13335;SDS011;6737;51.480;11.962;2023-02-18T04:30:25;7.07;;;1.90;;
13335;SDS011;6737;51.480;11.962;2023-02-18T04:32:51;9.37;;;1.73;;
13335;SDS011;6737;51.480;11.962;2023-02-18T04:35:17;5.60;;;1.87;;
13335;SDS011;6737;51.480;11.962;2023-02-18T04:37:43;8.30;;;2.03;;
13335;SDS011;6737;51.480;11.962;2023-02-18T04:40:09;5.27;;;1.70;;
13335;SDS011;6737;51.480;11.962;2023-02-18T04:42:35;5.43;;;1.70;;
13335;SDS011;6737;51.480;11.962;2023-02-18T04:45:01;7.07;;;1.80;;
13335;SDS011;6737;51.480;11.962;2023-02-18T04:47:26;4.93;;;1.77;;
13335;SDS011;6737;51.480;11.962;2023-02-18T04:49:52;7.53;;;1.70;;
13335;SDS011;6737;51.480;11.962;2023-02-18T04:52:18;9.03;;;1.97;;
13335;SDS011;6737;51.480;11.962;2023-02-18T04:54:44;5.37;;;1.60;;
13335;SDS011;6737;51.480;11.962;2023-02-18T04:57:10;6.20;;;1.60;;
13335;SDS011;6737;51.480;11.962;2023-02-18T04:59:37;7.30;;;1.70;;
13335;SDS011;6737;51.480;11.962;2023-02-18T05:02:03;6.70;;;1.73;;
13335;SDS011;6737;51.480;11.962;2023-02-18T05:04:29;5.50;;;1.57;;
13335;SDS011;6737;51.480;11.962;2023-02-18T05:06:55;6.30;;;1.97;;
13335;SDS011;6737;51.480;11.962;2023-02-18T05:09:21;5.40;;;1.80;;
13335;SDS011;6737;51.480;11.962;2023-02-18T05:11:47;6.23;;;1.73;;
13335;SDS011;6737;51.480;11.962;2023-02-18T05:14:13;8.77;;;1.97;;
13335;SDS011;6737;51.480;11.962;2023-02-18T05:16:40;4.90;;;1.90;;
13335;SDS011;6737;51.480;11.962;2023-02-18T05:19:05;4.20;;;1.93;;
13335;SDS011;6737;51.480;11.962;2023-02-18T05:21:31;4.77;;;1.87;;
13335;SDS011;6737;51.480;11.962;2023-02-18T05:23:58;7.17;;;2.30;;
13335;SDS011;6737;51.480;11.962;2023-02-18T05:26:23;5.50;;;2.20;;
13335;SDS011;6737;51.480;11.962;2023-02-18T05:28:49;8.90;;;2.60;;
13335;SDS011;6737;51.480;11.962;2023-02-18T05:31:15;6.10;;;1.90;;
13335;SDS011;6737;51.480;11.962;2023-02-18T05:33:41;4.27;;;2.00;;
13335;SDS011;6737;51.480;11.962;2023-02-18T05:36:07;6.83;;;2.90;;
13335;SDS011;6737;51.480;11.962;2023-02-18T05:38:33;9.00;;;2.90;;
13335;SDS011;6737;51.480;11.962;2023-02-18T05:40:58;6.63;;;2.70;;
13335;SDS011;6737;51.480;11.962;2023-02-18T05:43:24;7.87;;;3.50;;
13335;SDS011;6737;51.480;11.962;2023-02-18T05:45:50;8.17;;;3.83;;
13335;SDS011;6737;51.480;11.962;2023-02-18T05:48:16;8.27;;;4.00;;
13335;SDS011;6737;51.480;11.962;2023-02-18T05:50:41;9.57;;;3.53;;
13335;SDS011;6737;51.480;11.962;2023-02-18T05:53:07;8.97;;;3.80;;
13335;SDS011;6737;51.480;11.962;2023-02-18T05:55:33;9.50;;;3.80;;
13335;SDS011;6737;51.480;11.962;2023-02-18T05:58:03;8.77;;;3.70;;
13335;SDS011;6737;51.480;11.962;2023-02-18T06:00:30;12.13;;;4.10;;
13335;SDS011;6737;51.480;11.962;2023-02-18T06:02:57;8.30;;;4.03;;
13335;SDS011;6737;51.480;11.962;2023-02-18T06:05:23;10.47;;;4.23;;
13335;SDS011;6737;51.480;11.962;2023-02-18T06:07:49;8.73;;;4.57;;
13335;SDS011;6737;51.480;11.962;2023-02-18T06:10:15;7.57;;;4.63;;
13335;SDS011;6737;51.480;11.962;2023-02-18T06:12:42;9.57;;;4.60;;
13335;SDS011;6737;51.480;11.962;2023-02-18T06:15:08;8.57;;;4.50;;
13335;SDS011;6737;51.480;11.962;2023-02-18T06:17:34;14.73;;;5.20;;
13335;SDS011;6737;51.480;11.962;2023-02-18T06:20:00;9.23;;;5.27;;
13335;SDS011;6737;51.480;11.962;2023-02-18T06:22:25;9.57;;;6.40;;
13335;SDS011;6737;51.480;11.962;2023-02-18T06:24:51;10.73;;;5.67;;
13335;SDS011;6737;51.480;11.962;2023-02-18T06:27:17;12.00;;;5.67;;
13335;SDS011;6737;51.480;11.962;2023-02-18T06:29:43;12.73;;;6.53;;
13335;SDS011;6737;51.480;11.962;2023-02-18T06:32:08;12.93;;;7.63;;
13335;SDS011;6737;51.480;11.962;2023-02-18T06:34:34;12.57;;;8.30;;
13335;SDS011;6737;51.480;11.962;2023-02-18T06:37:00;12.20;;;6.77;;
13335;SDS011;6737;51.480;11.962;2023-02-18T06:39:26;16.47;;;8.27;;
13335;SDS011;6737;51.480;11.962;2023-02-18T06:41:51;15.07;;;8.10;;
13335;SDS011;6737;51.480;11.962;2023-02-18T06:44:17;14.13;;;8.00;;
13335;SDS011;6737;51.480;11.962;2023-02-18T06:46:43;17.67;;;8.33;;
13335;SDS011;6737;51.480;11.962;2023-02-18T06:49:09;16.63;;;8.23;;
13335;SDS011;6737;51.480;11.962;2023-02-18T06:51:35;16.70;;;8.73;;
13335;SDS011;6737;51.480;11.962;2023-02-18T06:54:01;14.30;;;8.63;;
13335;SDS011;6737;51.480;11.962;2023-02-18T06:56:26;15.83;;;9.10;;
13335;SDS011;6737;51.480;11.962;2023-02-18T06:58:52;17.70;;;10.50;;
13335;SDS011;6737;51.480;11.962;2023-02-18T07:01:18;18.77;;;9.27;;
13335;SDS011;6737;51.480;11.962;2023-02-18T07:03:43;19.13;;;10.13;;
13335;SDS011;6737;51.480;11.962;2023-02-18T07:06:09;18.17;;;10.40;;
13335;SDS011;6737;51.480;11.962;2023-02-18T07:08:35;17.47;;;9.40;;
13335;SDS011;6737;51.480;11.962;2023-02-18T07:11:02;18.93;;;9.77;;
13335;SDS011;6737;51.480;11.962;2023-02-18T07:13:28;18.90;;;11.00;;
13335;SDS011;6737;51.480;11.962;2023-02-18T07:15:53;21.23;;;11.83;;
13335;SDS011;6737;51.480;11.962;2023-02-18T07:18:19;24.37;;;13.93;;
13335;SDS011;6737;51.480;11.962;2023-02-18T07:20:45;24.53;;;14.43;;
13335;SDS011;6737;51.480;11.962;2023-02-18T07:23:11;28.07;;;14.23;;
13335;SDS011;6737;51.480;11.962;2023-02-18T07:25:37;24.00;;;14.23;;
13335;SDS011;6737;51.480;11.962;2023-02-18T07:28:02;26.67;;;13.77;;
13335;SDS011;6737;51.480;11.962;2023-02-18T07:30:28;21.10;;;12.50;;
13335;SDS011;6737;51.480;11.962;2023-02-18T07:32:54;22.40;;;12.53;;
13335;SDS011;6737;51.480;11.962;2023-02-18T07:35:19;19.60;;;11.80;;
13335;SDS011;6737;51.480;11.962;2023-02-18T07:37:46;22.80;;;14.30;;
13335;SDS011;6737;51.480;11.962;2023-02-18T07:40:13;24.50;;;15.27;;
13335;SDS011;6737;51.480;11.962;2023-02-18T07:42:41;28.17;;;15.07;;
13335;SDS011;6737;51.480;11.962;2023-02-18T07:45:07;22.27;;;14.47;;
13335;SDS011;6737;51.480;11.962;2023-02-18T07:47:33;25.33;;;16.23;;
13335;SDS011;6737;51.480;11.962;2023-02-18T07:49:59;26.60;;;13.47;;
13335;SDS011;6737;51.480;11.962;2023-02-18T07:52:25;22.33;;;13.10;;
13335;SDS011;6737;51.480;11.962;2023-02-18T07:54:51;19.80;;;11.27;;
13335;SDS011;6737;51.480;11.962;2023-02-18T07:57:16;21.77;;;11.43;;
13335;SDS011;6737;51.480;11.962;2023-02-18T07:59:42;21.10;;;11.13;;
13335;SDS011;6737;51.480;11.962;2023-02-18T08:02:12;21.67;;;11.30;;
13335;SDS011;6737;51.480;11.962;2023-02-18T08:04:44;18.77;;;10.77;;
13335;SDS011;6737;51.480;11.962;2023-02-18T08:07:13;20.10;;;11.43;;
13335;SDS011;6737;51.480;11.962;2023-02-18T08:09:40;19.10;;;10.90;;
13335;SDS011;6737;51.480;11.962;2023-02-18T08:12:06;17.13;;;9.97;;
13335;SDS011;6737;51.480;11.962;2023-02-18T08:14:32;15.80;;;9.13;;
13335;SDS011;6737;51.480;11.962;2023-02-18T08:16:58;10.50;;;6.90;;
13335;SDS011;6737;51.480;11.962;2023-02-18T08:19:24;7.50;;;5.33;;
13335;SDS011;6737;51.480;11.962;2023-02-18T08:21:50;7.57;;;5.13;;
13335;SDS011;6737;51.480;11.962;2023-02-18T08:24:15;5.37;;;4.07;;
13335;SDS011;6737;51.480;11.962;2023-02-18T08:26:41;6.03;;;3.50;;
13335;SDS011;6737;51.480;11.962;2023-02-18T08:29:07;3.67;;;2.93;;
13335;SDS011;6737;51.480;11.962;2023-02-18T08:31:34;3.10;;;2.30;;
13335;SDS011;6737;51.480;11.962;2023-02-18T08:34:00;2.70;;;2.20;;
13335;SDS011;6737;51.480;11.962;2023-02-18T08:36:28;3.10;;;1.90;;
13335;SDS011;6737;51.480;11.962;2023-02-18T08:38:54;1.97;;;1.67;;
13335;SDS011;6737;51.480;11.962;2023-02-18T08:41:20;2.23;;;1.70;;
13335;SDS011;6737;51.480;11.962;2023-02-18T08:43:46;2.23;;;1.20;;
13335;SDS011;6737;51.480;11.962;2023-02-18T08:46:12;1.87;;;1.23;;
13335;SDS011;6737;51.480;11.962;2023-02-18T08:48:39;1.30;;;1.10;;
13335;SDS011;6737;51.480;11.962;2023-02-18T08:51:16;1.10;;;1.00;;
13335;SDS011;6737;51.480;11.962;2023-02-18T08:53:43;1.50;;;1.03;;
13335;SDS011;6737;51.480;11.962;2023-02-18T08:56:11;1.27;;;1.03;;
13335;SDS011;6737;51.480;11.962;2023-02-18T08:58:39;1.40;;;0.83;;
13335;SDS011;6737;51.480;11.962;2023-02-18T09:01:06;1.67;;;1.03;;
13335;SDS011;6737;51.480;11.962;2023-02-18T09:03:34;1.10;;;0.93;;
13335;SDS011;6737;51.480;11.962;2023-02-18T09:06:00;1.00;;;0.90;;
13335;SDS011;6737;51.480;11.962;2023-02-18T09:08:27;0.93;;;0.80;;
13335;SDS011;6737;51.480;11.962;2023-02-18T09:10:53;1.20;;;1.00;;
13335;SDS011;6737;51.480;11.962;2023-02-18T09:13:20;1.73;;;0.83;;
13335;SDS011;6737;51.480;11.962;2023-02-18T09:15:54;2.07;;;0.90;;
13335;SDS011;6737;51.480;11.962;2023-02-18T09:18:24;1.33;;;0.83;;
13335;SDS011;6737;51.480;11.962;2023-02-18T09:20:50;1.57;;;0.90;;
13335;SDS011;6737;51.480;11.962;2023-02-18T09:23:16;1.60;;;0.80;;
13335;SDS011;6737;51.480;11.962;2023-02-18T09:25:42;1.20;;;0.70;;
13335;SDS011;6737;51.480;11.962;2023-02-18T09:28:08;0.70;;;0.70;;
13335;SDS011;6737;51.480;11.962;2023-02-18T09:30:33;0.90;;;0.70;;
13335;SDS011;6737;51.480;11.962;2023-02-18T09:32:59;0.77;;;0.70;;
13335;SDS011;6737;51.480;11.962;2023-02-18T09:35:25;0.70;;;0.70;;
13335;SDS011;6737;51.480;11.962;2023-02-18T09:37:50;0.97;;;0.70;;
13335;SDS011;6737;51.480;11.962;2023-02-18T09:40:24;0.60;;;0.60;;
13335;SDS011;6737;51.480;11.962;2023-02-18T09:42:54;0.70;;;0.60;;
13335;SDS011;6737;51.480;11.962;2023-02-18T09:45:22;1.60;;;0.70;;
13335;SDS011;6737;51.480;11.962;2023-02-18T09:47:48;1.47;;;0.60;;
13335;SDS011;6737;51.480;11.962;2023-02-18T09:52:46;1.63;;;0.60;;
13335;SDS011;6737;51.480;11.962;2023-02-18T09:57:53;1.00;;;0.50;;
13335;SDS011;6737;51.480;11.962;2023-02-18T10:00:32;0.47;;;0.47;;
13335;SDS011;6737;51.480;11.962;2023-02-18T10:03:06;1.17;;;0.50;;
13335;SDS011;6737;51.480;11.962;2023-02-18T10:05:54;0.50;;;0.50;;
13335;SDS011;6737;51.480;11.962;2023-02-18T10:08:31;0.63;;;0.47;;
13335;SDS011;6737;51.480;11.962;2023-02-18T10:11:05;0.50;;;0.40;;
13335;SDS011;6737;51.480;11.962;2023-02-18T10:13:47;0.50;;;0.50;;
13335;SDS011;6737;51.480;11.962;2023-02-18T10:16:15;0.67;;;0.50;;
13335;SDS011;6737;51.480;11.962;2023-02-18T10:18:44;0.40;;;0.40;;
13335;SDS011;6737;51.480;11.962;2023-02-18T10:21:34;0.40;;;0.40;;
13335;SDS011;6737;51.480;11.962;2023-02-18T10:24:03;0.53;;;0.43;;
13335;SDS011;6737;51.480;11.962;2023-02-18T10:26:33;2.07;;;0.40;;
13335;SDS011;6737;51.480;11.962;2023-02-18T10:29:02;0.50;;;0.50;;
13335;SDS011;6737;51.480;11.962;2023-02-18T10:31:33;1.17;;;0.40;;
13335;SDS011;6737;51.480;11.962;2023-02-18T10:36:55;0.63;;;0.40;;
13335;SDS011;6737;51.480;11.962;2023-02-18T10:39:39;0.30;;;0.30;;
13335;SDS011;6737;51.480;11.962;2023-02-18T10:47:39;0.40;;;0.40;;
13335;SDS011;6737;51.480;11.962;2023-02-18T10:50:16;0.40;;;0.40;;
13335;SDS011;6737;51.480;11.962;2023-02-18T10:56:01;1.40;;;0.40;;
13335;SDS011;6737;51.480;11.962;2023-02-18T10:58:36;0.40;;;0.40;;
13335;SDS011;6737;51.480;11.962;2023-02-18T11:01:31;0.57;;;0.40;;
13335;SDS011;6737;51.480;11.962;2023-02-18T11:04:15;0.40;;;0.40;;
13335;SDS011;6737;51.480;11.962;2023-02-18T11:06:44;0.53;;;0.50;;
13335;SDS011;6737;51.480;11.962;2023-02-18T11:12:16;0.50;;;0.50;;
13335;SDS011;6737;51.480;11.962;2023-02-18T11:15:15;0.50;;;0.40;;
13335;SDS011;6737;51.480;11.962;2023-02-18T11:17:47;0.40;;;0.40;;
13335;SDS011;6737;51.480;11.962;2023-02-18T11:20:22;0.77;;;0.40;;
13335;SDS011;6737;51.480;11.962;2023-02-18T11:23:14;0.40;;;0.40;;
13335;SDS011;6737;51.480;11.962;2023-02-18T11:25:51;0.50;;;0.50;;
13335;SDS011;6737;51.480;11.962;2023-02-18T11:28:42;0.47;;;0.47;;
13335;SDS011;6737;51.480;11.962;2023-02-18T11:31:19;0.40;;;0.40;;
13335;SDS011;6737;51.480;11.962;2023-02-18T11:33:51;0.50;;;0.50;;
13335;SDS011;6737;51.480;11.962;2023-02-18T11:36:27;0.77;;;0.57;;
13335;SDS011;6737;51.480;11.962;2023-02-18T11:39:35;0.50;;;0.50;;
13335;SDS011;6737;51.480;11.962;2023-02-18T11:41:48;0.50;;;0.50;;
13335;SDS011;6737;51.480;11.962;2023-02-18T11:47:03;0.87;;;0.50;;
13335;SDS011;6737;51.480;11.962;2023-02-18T11:49:31;0.53;;;0.40;;
13335;SDS011;6737;51.480;11.962;2023-02-18T11:52:16;0.90;;;0.60;;
13335;SDS011;6737;51.480;11.962;2023-02-18T11:57:38;0.50;;;0.50;;
13335;SDS011;6737;51.480;11.962;2023-02-18T12:02:54;0.77;;;0.50;;
13335;SDS011;6737;51.480;11.962;2023-02-18T12:05:24;1.03;;;0.57;;
13335;SDS011;6737;51.480;11.962;2023-02-18T12:07:57;0.50;;;0.50;;
13335;SDS011;6737;51.480;11.962;2023-02-18T12:10:33;0.77;;;0.50;;
13335;SDS011;6737;51.480;11.962;2023-02-18T12:13:15;1.23;;;0.50;;
13335;SDS011;6737;51.480;11.962;2023-02-18T12:24:09;1.93;;;0.50;;
13335;SDS011;6737;51.480;11.962;2023-02-18T12:32:29;0.50;;;0.50;;
13335;SDS011;6737;51.480;11.962;2023-02-18T12:35:18;0.50;;;0.50;;
13335;SDS011;6737;51.480;11.962;2023-02-18T12:41:18;0.80;;;0.70;;
13335;SDS011;6737;51.480;11.962;2023-02-18T12:52:21;0.60;;;0.50;;
13335;SDS011;6737;51.480;11.962;2023-02-18T13:03:48;0.60;;;0.60;;
13335;SDS011;6737;51.480;11.962;2023-02-18T13:06:47;0.57;;;0.57;;
13335;SDS011;6737;51.480;11.962;2023-02-18T13:09:27;0.80;;;0.60;;
13335;SDS011;6737;51.480;11.962;2023-02-18T13:18:02;0.60;;;0.57;;
13335;SDS011;6737;51.480;11.962;2023-02-18T13:23:23;1.73;;;0.60;;
13335;SDS011;6737;51.480;11.962;2023-02-18T13:25:56;1.20;;;0.70;;
13335;SDS011;6737;51.480;11.962;2023-02-18T13:28:27;1.13;;;0.63;;
13335;SDS011;6737;51.480;11.962;2023-02-18T13:31:53;0.83;;;0.70;;
13335;SDS011;6737;51.480;11.962;2023-02-18T13:34:19;0.97;;;0.70;;
13335;SDS011;6737;51.480;11.962;2023-02-18T13:39:34;0.60;;;0.60;;
13335;SDS011;6737;51.480;11.962;2023-02-18T13:47:39;1.73;;;0.70;;
13335;SDS011;6737;51.480;11.962;2023-02-18T13:55:37;1.70;;;0.67;;
13335;SDS011;6737;51.480;11.962;2023-02-18T13:58:04;4.00;;;0.77;;
13335;SDS011;6737;51.480;11.962;2023-02-18T14:00:45;0.70;;;0.70;;
13335;SDS011;6737;51.480;11.962;2023-02-18T14:03:33;1.10;;;0.67;;
13335;SDS011;6737;51.480;11.962;2023-02-18T14:06:12;1.20;;;0.80;;
13335;SDS011;6737;51.480;11.962;2023-02-18T14:08:38;0.90;;;0.60;;
13335;SDS011;6737;51.480;11.962;2023-02-18T14:13:46;1.67;;;0.60;;
13335;SDS011;6737;51.480;11.962;2023-02-18T14:16:17;1.23;;;0.60;;
13335;SDS011;6737;51.480;11.962;2023-02-18T14:26:22;2.40;;;0.60;;
13335;SDS011;6737;51.480;11.962;2023-02-18T14:29:00;0.77;;;0.50;;
13335;SDS011;6737;51.480;11.962;2023-02-18T14:50:34;1.37;;;0.70;;
13335;SDS011;6737;51.480;11.962;2023-02-18T14:53:06;2.93;;;0.80;;
13335;SDS011;6737;51.480;11.962;2023-02-18T14:55:39;1.30;;;0.90;;
13335;SDS011;6737;51.480;11.962;2023-02-18T15:01:26;1.10;;;0.70;;
13335;SDS011;6737;51.480;11.962;2023-02-18T15:03:54;1.10;;;0.80;;
13335;SDS011;6737;51.480;11.962;2023-02-18T15:06:30;1.07;;;0.83;;
13335;SDS011;6737;51.480;11.962;2023-02-18T15:09:02;0.83;;;0.70;;
13335;SDS011;6737;51.480;11.962;2023-02-18T15:11:40;1.00;;;0.63;;
13335;SDS011;6737;51.480;11.962;2023-02-18T15:14:14;0.80;;;0.70;;
13335;SDS011;6737;51.480;11.962;2023-02-18T15:16:46;1.30;;;0.70;;
13335;SDS011;6737;51.480;11.962;2023-02-18T15:19:14;2.30;;;0.57;;
13335;SDS011;6737;51.480;11.962;2023-02-18T15:21:43;0.80;;;0.80;;
13335;SDS011;6737;51.480;11.962;2023-02-18T15:27:00;1.73;;;0.70;;
13335;SDS011;6737;51.480;11.962;2023-02-18T15:29:37;1.00;;;0.70;;
13335;SDS011;6737;51.480;11.962;2023-02-18T15:34:51;0.70;;;0.70;;
13335;SDS011;6737;51.480;11.962;2023-02-18T15:37:22;1.00;;;0.80;;
13335;SDS011;6737;51.480;11.962;2023-02-18T15:39:48;0.70;;;0.70;;
13335;SDS011;6737;51.480;11.962;2023-02-18T15:42:34;0.70;;;0.70;;
13335;SDS011;6737;51.480;11.962;2023-02-18T15:45:02;3.03;;;0.60;;
13335;SDS011;6737;51.480;11.962;2023-02-18T15:47:29;0.70;;;0.70;;
13335;SDS011;6737;51.480;11.962;2023-02-18T15:49:57;0.97;;;0.87;;
13335;SDS011;6737;51.480;11.962;2023-02-18T15:52:26;1.23;;;0.60;;
13335;SDS011;6737;51.480;11.962;2023-02-18T15:54:59;1.00;;;0.80;;
13335;SDS011;6737;51.480;11.962;2023-02-18T15:57:36;2.17;;;0.80;;
13335;SDS011;6737;51.480;11.962;2023-02-18T16:00:13;1.90;;;0.70;;
13335;SDS011;6737;51.480;11.962;2023-02-18T16:02:54;0.90;;;0.60;;
13335;SDS011;6737;51.480;11.962;2023-02-18T16:05:37;0.90;;;0.80;;
13335;SDS011;6737;51.480;11.962;2023-02-18T16:08:05;0.70;;;0.70;;
13335;SDS011;6737;51.480;11.962;2023-02-18T16:10:40;1.60;;;0.80;;
13335;SDS011;6737;51.480;11.962;2023-02-18T16:13:21;1.00;;;0.80;;
13335;SDS011;6737;51.480;11.962;2023-02-18T16:15:48;2.20;;;0.97;;
13335;SDS011;6737;51.480;11.962;2023-02-18T16:18:38;1.00;;;0.90;;
13335;SDS011;6737;51.480;11.962;2023-02-18T16:21:05;0.80;;;0.77;;
13335;SDS011;6737;51.480;11.962;2023-02-18T16:23:52;1.23;;;0.83;;
13335;SDS011;6737;51.480;11.962;2023-02-18T16:29:10;1.27;;;0.80;;
13335;SDS011;6737;51.480;11.962;2023-02-18T16:31:36;1.20;;;0.80;;
13335;SDS011;6737;51.480;11.962;2023-02-18T16:34:02;1.60;;;0.90;;
13335;SDS011;6737;51.480;11.962;2023-02-18T16:36:27;1.30;;;0.90;;
13335;SDS011;6737;51.480;11.962;2023-02-18T16:38:53;1.00;;;0.90;;
13335;SDS011;6737;51.480;11.962;2023-02-18T16:41:20;0.70;;;0.70;;
13335;SDS011;6737;51.480;11.962;2023-02-18T16:43:46;1.13;;;0.90;;
13335;SDS011;6737;51.480;11.962;2023-02-18T16:46:13;1.10;;;1.00;;
13335;SDS011;6737;51.480;11.962;2023-02-18T16:48:50;1.20;;;0.87;;
13335;SDS011;6737;51.480;11.962;2023-02-18T16:53:58;1.70;;;1.13;;
13335;SDS011;6737;51.480;11.962;2023-02-18T16:56:31;3.23;;;1.27;;
13335;SDS011;6737;51.480;11.962;2023-02-18T16:58:57;2.70;;;1.17;;
13335;SDS011;6737;51.480;11.962;2023-02-18T17:01:27;1.67;;;1.30;;
13335;SDS011;6737;51.480;11.962;2023-02-18T17:03:56;1.93;;;1.17;;
13335;SDS011;6737;51.480;11.962;2023-02-18T17:06:23;1.23;;;1.13;;
13335;SDS011;6737;51.480;11.962;2023-02-18T17:08:49;2.17;;;1.10;;
13335;SDS011;6737;51.480;11.962;2023-02-18T17:11:16;2.03;;;1.20;;
13335;SDS011;6737;51.480;11.962;2023-02-18T17:13:52;1.60;;;1.37;;
13335;SDS011;6737;51.480;11.962;2023-02-18T17:16:19;2.00;;;1.23;;
13335;SDS011;6737;51.480;11.962;2023-02-18T17:18:46;3.33;;;1.60;;
13335;SDS011;6737;51.480;11.962;2023-02-18T17:21:13;1.73;;;1.40;;
13335;SDS011;6737;51.480;11.962;2023-02-18T17:23:41;1.43;;;1.20;;
13335;SDS011;6737;51.480;11.962;2023-02-18T17:26:18;1.83;;;1.57;;
13335;SDS011;6737;51.480;11.962;2023-02-18T17:28:49;1.40;;;1.30;;
13335;SDS011;6737;51.480;11.962;2023-02-18T17:31:16;2.43;;;1.53;;
13335;SDS011;6737;51.480;11.962;2023-02-18T17:33:51;3.20;;;1.50;;
13335;SDS011;6737;51.480;11.962;2023-02-18T17:36:22;2.30;;;1.53;;
13335;SDS011;6737;51.480;11.962;2023-02-18T17:38:48;2.60;;;1.67;;
13335;SDS011;6737;51.480;11.962;2023-02-18T17:41:14;2.50;;;1.60;;
13335;SDS011;6737;51.480;11.962;2023-02-18T17:43:40;3.80;;;1.50;;
13335;SDS011;6737;51.480;11.962;2023-02-18T17:46:11;2.63;;;1.93;;